This is the latest recevied weather packets stored in our database for station/object SP9POL-3. If no packets are shown the sender has not sent any weather packets the latest 10 day(s).
| Time | Temp. | Humidity | Pressure | Rain* | Wind** | Luminosity | Snow |
|---|---|---|---|---|---|---|---|
| 1777390497 | 11.67° C | 23% | 1022.4 hPa | - | - | - | - |
| 1777388817 | 11.67° C | 22% | 1022.7 hPa | - | - | - | - |
| 1777387137 | 10.56° C | 26% | 1023 hPa | - | - | - | - |
| 1777385456 | 10° C | 26% | 1023.1 hPa | - | - | - | - |
| 1777383776 | 10.56° C | 25% | 1023.1 hPa | - | - | - | - |
| 1777382096 | 11.67° C | 23% | 1023.1 hPa | - | - | - | - |
| 1777380415 | 11.11° C | 25% | 1023.4 hPa | - | - | - | - |
| 1777378735 | 11.11° C | 26% | 1023.4 hPa | - | - | - | - |
| 1777377055 | 11.67° C | 24% | 1023.6 hPa | - | - | - | - |
| 1777375375 | 10° C | 27% | 1023.7 hPa | - | - | - | - |
| 1777373695 | 10° C | 27% | 1023.9 hPa | - | - | - | - |
| 1777372015 | 9.44° C | 26% | 1023.7 hPa | - | - | - | - |
| 1777370335 | 8.89° C | 28% | 1023.9 hPa | - | - | - | - |
| 1777368654 | 7.78° C | 28% | 1024.1 hPa | - | - | - | - |
| 1777366974 | 7.22° C | 30% | 1024.3 hPa | - | - | - | - |
| 1777365294 | 7.22° C | 29% | 1024.4 hPa | - | - | - | - |
| 1777363614 | 6.67° C | 31% | 1024.7 hPa | - | - | - | - |
| 1777361934 | 6.11° C | 35% | 1024.7 hPa | - | - | - | - |
| 1777360254 | 5.56° C | 37% | 1024.7 hPa | - | - | - | - |
| 1777358573 | 5.56° C | 40% | 1024.6 hPa | - | - | - | - |
| 1777356893 | 5° C | 41% | 1024.5 hPa | - | - | - | - |
| 1777355277 | 3.89° C | 44% | 1024.4 hPa | - | - | - | - |
| 1777355212 | 3.89° C | 44% | 1024.4 hPa | - | - | - | - |
| 1777353532 | 3.33° C | 49% | 1024.3 hPa | - | - | - | - |
| 1777351852 | 2.78° C | 50% | 1024.1 hPa | - | - | - | - |
* Rain since midnight (hover to see other rain measurements)
** Current wind speed in m/s (hover to see current wind gust speed)